createdAt,value
2022-11-03T00:01:49.201Z,4.6938
2022-11-03T00:06:51.079Z,5.34388
2022-11-03T00:11:52.722Z,5.12062
2022-11-03T00:16:54.425Z,5.37374
2022-11-03T00:21:56.050Z,5.37278
2022-11-03T00:26:57.701Z,5.39311
2022-11-03T00:31:59.308Z,5.06155
2022-11-03T00:37:00.988Z,4.58391
2022-11-03T00:42:02.708Z,4.12914
2022-11-03T00:47:04.405Z,3.84459
2022-11-03T00:52:06.076Z,4.15074
2022-11-03T00:57:07.688Z,4.35462
2022-11-03T01:02:09.432Z,4.55438
2022-11-03T01:07:11.121Z,3.99894
2022-11-03T01:12:12.787Z,4.38797
2022-11-03T01:17:14.433Z,4.09707
2022-11-03T01:22:16.073Z,4.03323
2022-11-03T01:27:17.802Z,3.86524
2022-11-03T01:32:19.430Z,3.76615
2022-11-03T01:37:21.172Z,2.81216
2022-11-03T01:42:22.792Z,2.70196
2022-11-03T01:47:24.446Z,2.01442
2022-11-03T01:52:26.087Z,2.52698
2022-11-03T01:57:27.736Z,2.36883
2022-11-03T02:02:29.398Z,2.64035
2022-11-03T02:07:31.074Z,2.97095
2022-11-03T02:12:32.685Z,3.39713
2022-11-03T02:17:34.400Z,3.21611
2022-11-03T02:22:36.046Z,2.63051
2022-11-03T02:27:37.648Z,2.73213
2022-11-03T02:32:39.246Z,2.30944
2022-11-03T02:37:40.827Z,2.10683
2022-11-03T02:42:42.472Z,2.80232
2022-11-03T02:47:44.126Z,2.95697
2022-11-03T02:52:45.784Z,2.76103
2022-11-03T02:57:47.546Z,3.29201
2022-11-03T03:02:49.143Z,3.5718
2022-11-03T03:07:50.718Z,3.82173
2022-11-03T03:12:52.349Z,3.73376
2022-11-03T03:17:53.957Z,3.74138
2022-11-03T03:22:55.594Z,3.29487
2022-11-03T03:27:57.199Z,2.5997
2022-11-03T03:32:58.813Z,2.82677
2022-11-03T03:38:00.423Z,2.73277
2022-11-03T03:43:02.057Z,3.08083
2022-11-03T03:48:03.795Z,2.6556
2022-11-03T03:53:05.459Z,3.04653
2022-11-03T03:58:07.512Z,2.79565
2022-11-03T04:03:09.316Z,3.31488
2022-11-03T04:08:10.893Z,3.19896
2022-11-03T04:13:12.631Z,3.17419
2022-11-03T04:18:14.258Z,2.38407
2022-11-03T04:23:15.860Z,2.87885
2022-11-03T04:28:17.458Z,2.75119
2022-11-03T04:33:19.067Z,3.04526
2022-11-03T04:38:20.729Z,2.90711
2022-11-03T04:43:22.387Z,2.81851
2022-11-03T04:48:24.042Z,2.45775
2022-11-03T04:53:25.691Z,2.00712
2022-11-03T04:58:27.369Z,2.46601
2022-11-03T05:03:29.017Z,2.21767
2022-11-03T05:08:30.654Z,1.94106
2022-11-03T05:13:32.361Z,2.02712
2022-11-03T05:18:34.021Z,1.95123
2022-11-03T05:23:35.703Z,1.00202
2022-11-03T05:28:37.676Z,1.35706
2022-11-03T05:33:39.316Z,1.17382
2022-11-03T05:38:41.246Z,1.89184
2022-11-03T05:43:42.898Z,1.93376
2022-11-03T05:48:44.687Z,2.05348
2022-11-03T05:53:46.453Z,2.0881
2022-11-03T05:58:48.438Z,0.72955
2022-11-03T06:03:50.206Z,1.02806
2022-11-03T06:08:51.783Z,1.85945
2022-11-03T06:13:53.417Z,1.79752
2022-11-03T06:18:55.011Z,2.00108
2022-11-03T06:23:56.629Z,1.70987
2022-11-03T06:28:58.259Z,1.68256
2022-11-03T06:33:59.942Z,1.94614
2022-11-03T06:39:01.767Z,1.47805
2022-11-03T06:44:03.387Z,1.81753
2022-11-03T06:49:05.049Z,1.81658
2022-11-03T06:54:06.631Z,0.52694
2022-11-03T06:59:08.485Z,1.59745
2022-11-03T07:04:10.349Z,1.35706
2022-11-03T07:09:11.976Z,1.69876
2022-11-03T07:14:13.620Z,1.69654
2022-11-03T07:19:15.256Z,0.94962
2022-11-03T07:24:16.885Z,1.38977
2022-11-03T07:29:18.549Z,1.5241
2022-11-03T07:34:20.207Z,1.54347
2022-11-03T07:39:21.903Z,1.38214
2022-11-03T07:44:23.557Z,1.36372
2022-11-03T07:49:25.263Z,0.98582
2022-11-03T07:54:26.975Z,0.5263
2022-11-03T07:59:28.656Z,0.51424
2022-11-03T08:04:30.302Z,0.85625
2022-11-03T08:09:31.950Z,0.72986
2022-11-03T08:14:33.631Z,0.42468
2022-11-03T08:19:35.310Z,0.66508
2022-11-03T08:24:36.962Z,0.71176
2022-11-03T08:29:38.605Z,0.36562
2022-11-03T08:34:40.213Z,0.42183
2022-11-03T08:39:41.956Z,0.04869
2022-11-03T08:44:43.623Z,-0.27141
2022-11-03T08:49:45.302Z,-0.52768
2022-11-03T08:54:47.135Z,-0.17106
2022-11-03T08:59:48.826Z,-0.25204
2022-11-03T09:04:50.453Z,-0.15646
2022-11-03T09:10:20.021Z,-0.68996
2022-11-03T09:15:24.084Z,0.02138
2022-11-03T09:20:25.698Z,0.18873
2022-11-03T09:25:27.611Z,-0.09263
2022-11-03T09:30:29.330Z,0.18588
2022-11-03T09:35:30.957Z,-0.09771
2022-11-03T09:40:32.683Z,-0.24283
2022-11-03T09:45:34.348Z,-0.46608
2022-11-03T09:50:35.968Z,-0.19837
2022-11-03T09:55:37.569Z,-0.45496
2022-11-03T10:00:39.208Z,-0.15201
2022-11-03T10:05:40.947Z,-0.34763
2022-11-03T10:10:42.648Z,-0.4791
2022-11-03T10:15:44.295Z,-0.50514
2022-11-03T10:20:45.982Z,-0.43273
2022-11-03T10:25:47.641Z,-0.66678
2022-11-03T10:31:10.116Z,-0.73632
2022-11-03T10:36:13.461Z,-0.72362
2022-11-03T10:41:15.162Z,-0.6617
2022-11-03T10:46:36.613Z,-0.9005
2022-11-03T10:51:50.720Z,-0.65757
2022-11-03T10:56:52.428Z,-1.14724
2022-11-03T11:01:54.182Z,-0.63788
2022-11-03T11:06:55.898Z,-0.7106
2022-11-03T11:11:58.455Z,-0.69218
2022-11-03T11:17:00.395Z,-0.63026
2022-11-03T11:22:02.110Z,-0.575
2022-11-03T11:27:03.741Z,-0.81031
2022-11-03T11:32:05.358Z,-0.48545
2022-11-03T11:37:07.177Z,-0.6093
2022-11-03T11:42:08.903Z,-0.4013
2022-11-03T11:47:10.761Z,-0.57341
2022-11-03T11:52:15.517Z,-0.69948
2022-11-03T11:57:20.720Z,-0.55881
2022-11-03T12:02:22.331Z,-0.68329
2022-11-03T12:07:23.946Z,-1.07706
2022-11-03T12:12:25.567Z,-0.75029
2022-11-03T12:17:27.227Z,-0.51117
2022-11-03T12:22:28.882Z,-0.65915
2022-11-03T12:27:30.495Z,-0.58548
2022-11-03T12:32:33.530Z,-0.88113
2022-11-03T12:37:36.281Z,-0.66455
2022-11-03T12:42:37.957Z,-0.48894
2022-11-03T12:47:39.594Z,-1.02689
2022-11-03T12:52:41.242Z,-0.62073
2022-11-03T12:57:43.013Z,-0.5877
2022-11-03T13:02:44.812Z,-0.83064
2022-11-03T13:07:46.602Z,-0.70393
2022-11-03T13:12:48.256Z,-1.25744
2022-11-03T13:18:12.227Z,-0.86303
2022-11-03T13:23:17.490Z,-0.64677
2022-11-03T13:28:22.356Z,-1.16185
2022-11-03T13:33:23.938Z,-1.19837
2022-11-03T13:38:25.731Z,-0.62264
2022-11-03T13:43:27.391Z,-0.66868
2022-11-03T13:59:32.434Z,-1.01768
2022-11-03T14:04:41.780Z,-0.71409
2022-11-03T14:09:44.180Z,-0.78713
2022-11-03T14:14:45.843Z,-0.6582
2022-11-03T14:19:51.999Z,-0.42956
2022-11-03T14:24:54.420Z,-0.65661
2022-11-03T14:29:56.013Z,-0.3308
2022-11-03T14:34:57.697Z,-0.17932
2022-11-03T14:39:59.521Z,-0.1663
2022-11-03T14:45:01.269Z,-0.11009
2022-11-03T14:50:02.876Z,-0.34191
2022-11-03T14:55:04.587Z,-0.38447
2022-11-03T15:00:06.227Z,0.00455
2022-11-03T15:05:07.864Z,-0.28539
2022-11-03T15:10:09.553Z,-0.05484
2022-11-03T15:15:11.280Z,0.0001
2022-11-03T15:20:12.937Z,-0.07262
2022-11-03T15:25:17.167Z,0.07568
2022-11-03T15:30:22.054Z,0.05853
2022-11-03T15:35:23.740Z,-0.13867
2022-11-03T15:40:25.779Z,-0.05134
2022-11-03T15:45:27.520Z,-0.04023
2022-11-03T15:50:29.133Z,-0.1644
2022-11-03T15:55:30.770Z,0.16079
2022-11-03T16:00:32.663Z,-0.08437
2022-11-03T16:05:34.360Z,-0.12819
2022-11-03T16:10:36.011Z,0.37705
2022-11-03T16:15:37.692Z,0.57045
2022-11-03T16:20:39.347Z,0.61141
2022-11-03T16:25:41.005Z,0.81306
2022-11-03T16:30:42.725Z,0.89119
2022-11-03T16:35:44.389Z,1.1897
2022-11-03T16:40:46.085Z,1.01059
2022-11-03T16:45:47.724Z,1.01218
2022-11-03T16:50:51.570Z,1.15794
2022-11-03T16:55:56.104Z,0.80767
2022-11-03T17:00:57.827Z,0.48597
2022-11-03T17:05:59.647Z,0.98423
2022-11-03T17:11:01.859Z,0.36943
2022-11-03T17:16:03.511Z,1.25321
2022-11-03T17:21:05.191Z,0.79338
2022-11-03T17:26:06.891Z,2.07476
2022-11-03T17:31:08.517Z,1.88009
2022-11-03T17:36:10.172Z,1.59904
2022-11-03T17:41:15.014Z,2.75309
2022-11-03T17:46:19.736Z,2.3393
2022-11-03T17:51:21.370Z,2.79406
2022-11-03T17:56:30.069Z,2.84805
2022-11-03T18:01:32.908Z,2.87059
2022-11-03T18:06:34.654Z,2.26689
2022-11-03T18:11:36.316Z,2.66131
2022-11-03T18:16:38.202Z,2.76484
2022-11-03T18:21:40.091Z,2.47998
2022-11-03T18:26:41.849Z,2.07095
2022-11-03T18:31:43.555Z,2.20877
2022-11-03T18:36:45.252Z,2.01347
2022-11-03T18:41:46.856Z,2.14177
2022-11-03T18:46:48.519Z,2.48855
2022-11-03T18:51:50.184Z,2.56509
2022-11-03T18:56:51.815Z,1.91471
2022-11-03T19:01:53.605Z,2.2996
2022-11-03T19:06:55.336Z,2.35041
2022-11-03T19:11:56.942Z,2.87822
2022-11-03T19:17:22.307Z,2.84455
2022-11-03T19:22:25.043Z,3.22913
2022-11-03T19:27:26.772Z,3.41333
2022-11-03T19:32:28.402Z,4.52611
2022-11-03T19:37:35.166Z,3.79219
2022-11-03T19:42:37.666Z,3.52225
2022-11-03T19:47:39.724Z,3.53559
2022-11-03T19:52:43.722Z,3.44223
2022-11-03T19:57:45.472Z,3.25708
2022-11-03T20:02:47.202Z,4.06277
2022-11-03T20:07:48.961Z,2.98683
2022-11-03T20:12:50.696Z,4.50007
2022-11-03T20:17:52.337Z,3.64801
2022-11-03T20:22:54.098Z,3.26057
2022-11-03T20:27:55.995Z,3.18563
2022-11-03T20:32:57.892Z,3.02684
2022-11-03T20:37:59.543Z,2.85122
2022-11-03T20:43:01.367Z,3.63499
2022-11-03T20:48:03.065Z,3.32091
2022-11-03T20:53:04.679Z,3.70613
2022-11-03T20:58:06.774Z,4.11707
2022-11-03T21:03:08.904Z,3.14752
2022-11-03T21:08:10.774Z,3.41523
2022-11-03T21:13:12.421Z,3.6026
2022-11-03T21:18:14.012Z,4.34922
2022-11-03T21:23:15.731Z,4.03006
2022-11-03T21:28:17.374Z,3.7814
2022-11-03T21:33:20.705Z,3.20849
2022-11-03T21:38:22.346Z,2.80136
2022-11-03T21:43:24.011Z,3.00524
2022-11-03T21:48:25.635Z,3.70168
2022-11-03T21:53:27.293Z,3.10941
2022-11-03T21:58:28.941Z,2.89886
2022-11-03T22:03:30.582Z,2.89981
2022-11-03T22:08:32.242Z,3.40062
2022-11-03T22:13:33.978Z,2.73785
2022-11-03T22:18:35.714Z,2.9973
2022-11-03T22:23:37.317Z,2.91283
2022-11-03T22:28:39.079Z,2.7785
2022-11-03T22:33:40.706Z,3.2158
2022-11-03T22:38:42.359Z,3.47875
2022-11-03T22:43:44.038Z,3.49367
2022-11-03T22:48:45.628Z,2.88742
2022-11-03T22:53:47.265Z,2.73467
2022-11-03T22:58:48.959Z,3.05669
2022-11-03T23:03:50.671Z,3.36188
2022-11-03T23:08:52.291Z,3.03446
2022-11-03T23:13:54.004Z,2.43806
2022-11-03T23:18:55.679Z,2.06587
2022-11-03T23:23:57.310Z,2.06714
2022-11-03T23:28:58.928Z,1.83182
2022-11-03T23:34:00.610Z,1.75433
2022-11-03T23:39:02.271Z,1.70511
2022-11-03T23:44:03.940Z,2.01601
2022-11-03T23:49:05.559Z,1.9309
2022-11-03T23:54:07.227Z,2.46632
2022-11-03T23:59:08.861Z,2.21671
